Time;durP1;ratioP1;P1;durP2;ratioP2;P2;SDS_P1;SDS_P2;PMS_P1;PMS_P2;Temp;Humidity;BMP_temperature;BMP_pressure;BME280_temperature;BME280_humidity;BME280_pressure;Samples;Min_cycle;Max_cycle;Signal;HPM_P1;HPM_P2
2022/10/29 00:00:42;;;;;;;18.13;9.23;;;14.00;99.90;;;;;;6160092;23;20176;-76
2022/10/29 00:03:10;;;;;;;17.53;8.93;;;13.90;99.90;;;;;;6187589;23;20170;-77
2022/10/29 00:05:37;;;;;;;17.70;9.30;;;13.90;99.90;;;;;;6160715;23;20498;-76
2022/10/29 00:08:04;;;;;;;18.00;9.47;;;13.80;99.90;;;;;;6185289;23;20186;-77
2022/10/29 00:10:31;;;;;;;17.47;9.13;;;13.80;99.90;;;;;;6184534;23;20198;-76
2022/10/29 00:13:02;;;;;;;16.43;9.63;;;13.80;99.90;;;;;;6186148;23;20226;-76
2022/10/29 00:15:29;;;;;;;16.90;9.10;;;13.80;99.90;;;;;;6159572;23;20258;-77
2022/10/29 00:17:56;;;;;;;14.67;9.00;;;13.70;99.90;;;;;;6186185;23;20168;-77
2022/10/29 00:20:23;;;;;;;17.67;9.20;;;13.80;99.90;;;;;;6160160;23;20175;-76
2022/10/29 00:22:52;;;;;;;17.53;9.20;;;13.70;99.90;;;;;;6159857;23;20176;-76
2022/10/29 00:25:20;;;;;;;17.53;9.20;;;13.70;99.90;;;;;;6159833;23;20262;-77
2022/10/29 00:27:47;;;;;;;16.77;9.43;;;13.60;99.90;;;;;;6186055;23;20179;-76
2022/10/29 00:30:14;;;;;;;16.33;9.43;;;13.60;99.90;;;;;;6159805;23;20180;-77
2022/10/29 00:32:41;;;;;;;15.60;8.90;;;13.60;99.90;;;;;;6160036;23;20265;-77
2022/10/29 00:35:08;;;;;;;16.77;8.97;;;13.60;99.90;;;;;;6184423;23;20179;-76
2022/10/29 00:37:35;;;;;;;16.40;8.90;;;13.50;99.90;;;;;;6160072;23;20203;-76
2022/10/29 00:40:03;;;;;;;15.33;8.63;;;13.50;99.90;;;;;;6160060;23;20169;-76
2022/10/29 00:42:30;;;;;;;17.00;8.50;;;13.50;99.90;;;;;;6186677;23;20172;-76
2022/10/29 00:44:56;;;;;;;16.37;8.93;;;13.60;99.90;;;;;;6184907;23;20602;-76
2022/10/29 00:47:30;;;;;;;16.97;8.97;;;13.60;99.90;;;;;;6159778;23;20565;-76
2022/10/29 00:50:06;;;;;;;17.50;8.90;;;13.50;99.90;;;;;;6159921;23;20495;-77
2022/10/29 00:52:37;;;;;;;16.93;8.67;;;13.50;99.90;;;;;;6159835;23;20270;-77
2022/10/29 00:55:07;;;;;;;18.57;8.97;;;13.40;99.90;;;;;;6159612;23;20175;-76
2022/10/29 00:57:38;;;;;;;17.33;8.17;;;13.40;99.90;;;;;;6184721;23;20562;-77
2022/10/29 01:00:05;;;;;;;21.57;8.90;;;13.40;99.90;;;;;;6160337;23;20168;-76
2022/10/29 01:02:34;;;;;;;15.10;8.57;;;13.40;99.90;;;;;;6160516;23;20160;-76
2022/10/29 01:05:04;;;;;;;17.57;8.93;;;13.40;99.90;;;;;;6159276;23;20492;-77
2022/10/29 01:07:31;;;;;;;17.67;8.47;;;13.30;99.90;;;;;;6185126;23;20176;-77
2022/10/29 01:09:58;;;;;;;17.20;8.80;;;13.30;99.90;;;;;;6185214;23;20235;-76
2022/10/29 01:12:35;;;;;;;18.40;8.37;;;13.30;99.90;;;;;;6160199;23;20171;-77
2022/10/29 01:15:15;;;;;;;16.10;8.30;;;13.30;99.90;;;;;;6160169;23;20601;-77
2022/10/29 01:17:51;;;;;;;14.67;8.57;;;13.30;99.90;;;;;;6186556;23;20222;-76
2022/10/29 01:20:33;;;;;;;15.73;8.50;;;13.20;99.90;;;;;;6161133;23;20167;-76
2022/10/29 01:23:20;;;;;;;15.10;8.63;;;13.20;99.90;;;;;;6159957;23;20167;-76
2022/10/29 01:26:05;;;;;;;13.63;8.67;;;13.10;99.90;;;;;;6160015;23;20195;-76
2022/10/29 01:28:41;;;;;;;14.20;8.37;;;13.20;99.90;;;;;;6159659;23;20167;-76
2022/10/29 01:31:31;;;;;;;17.03;8.73;;;13.10;99.90;;;;;;6184285;23;20201;-76
2022/10/29 01:34:23;;;;;;;13.63;8.20;;;13.10;99.90;;;;;;6159660;23;20171;-76
2022/10/29 01:36:59;;;;;;;15.13;8.23;;;13.10;99.90;;;;;;6184712;23;20202;-77
2022/10/29 01:39:33;;;;;;;15.57;8.30;;;13.10;99.90;;;;;;6185974;23;20250;-77
2022/10/29 01:42:24;;;;;;;17.87;8.90;;;13.10;99.90;;;;;;6159490;23;20596;-76
2022/10/29 01:45:02;;;;;;;14.30;8.13;;;13.00;99.90;;;;;;6159136;23;20168;-77
2022/10/29 01:47:35;;;;;;;14.80;7.80;;;13.00;99.90;;;;;;6159317;23;20533;-77
2022/10/29 01:50:06;;;;;;;14.30;8.37;;;13.00;99.90;;;;;;6159272;23;20538;-77
2022/10/29 01:52:36;;;;;;;14.93;8.60;;;13.00;99.90;;;;;;6159308;23;20668;-77
2022/10/29 01:55:04;;;;;;;14.93;8.10;;;13.00;99.90;;;;;;6159442;23;20171;-77
2022/10/29 01:57:33;;;;;;;14.53;8.10;;;13.00;99.90;;;;;;6185416;23;20183;-77
2022/10/29 02:00:16;;;;;;;14.50;7.93;;;13.00;99.90;;;;;;6160408;23;20166;-77
2022/10/29 02:02:50;;;;;;;16.03;7.90;;;12.90;99.90;;;;;;6161303;23;20170;-77
2022/10/29 02:05:32;;;;;;;16.83;8.33;;;12.90;99.90;;;;;;6136281;23;20171;-76
2022/10/29 02:08:33;;;;;;;16.97;7.93;;;12.90;99.90;;;;;;6161492;23;20163;-77
2022/10/29 02:11:24;;;;;;;12.33;7.70;;;12.90;99.90;;;;;;6161309;23;20182;-77
2022/10/29 02:14:30;;;;;;;15.57;8.40;;;12.80;99.90;;;;;;6185642;23;20221;-77
2022/10/29 02:16:59;;;;;;;14.30;7.50;;;12.70;99.90;;;;;;6160129;23;20171;-77
2022/10/29 02:19:31;;;;;;;13.73;8.17;;;12.70;99.90;;;;;;6187502;23;20176;-77
2022/10/29 02:22:00;;;;;;;14.20;8.17;;;12.70;99.90;;;;;;6161100;23;20171;-76
2022/10/29 02:24:26;;;;;;;17.20;8.53;;;12.70;99.90;;;;;;6187561;23;20167;-77
2022/10/29 02:26:53;;;;;;;15.53;8.57;;;12.70;99.90;;;;;;6186368;23;20191;-76
2022/10/29 02:29:20;;;;;;;14.70;8.33;;;12.60;99.90;;;;;;6160648;23;20171;-77
2022/10/29 02:31:47;;;;;;;17.77;8.47;;;12.60;99.90;;;;;;6185816;23;20195;-76
2022/10/29 02:34:14;;;;;;;14.50;7.73;;;12.60;99.90;;;;;;6161221;23;20168;-77
2022/10/29 02:36:41;;;;;;;15.23;8.10;;;12.60;99.90;;;;;;6187549;23;20192;-76
2022/10/29 02:39:07;;;;;;;15.33;7.87;;;12.60;99.90;;;;;;6161399;23;20175;-76
2022/10/29 02:41:34;;;;;;;18.70;8.63;;;12.60;99.90;;;;;;6186070;23;20175;-76
2022/10/29 02:44:10;;;;;;;14.47;8.23;;;12.60;99.90;;;;;;6160468;23;20554;-77
2022/10/29 02:46:40;;;;;;;13.57;7.93;;;12.60;99.90;;;;;;6136058;23;20253;-77
2022/10/29 02:49:08;;;;;;;14.00;7.43;;;12.50;99.90;;;;;;6160955;23;20168;-77
2022/10/29 02:51:35;;;;;;;14.03;7.97;;;12.50;99.90;;;;;;6161004;23;20518;-76
2022/10/29 02:54:01;;;;;;;13.63;7.83;;;12.60;99.90;;;;;;6160617;23;20164;-76
2022/10/29 02:56:30;;;;;;;12.93;7.43;;;12.60;99.90;;;;;;6160645;23;20610;-77
2022/10/29 02:58:57;;;;;;;14.30;7.57;;;12.50;99.90;;;;;;6160358;23;20168;-76
2022/10/29 03:01:23;;;;;;;14.60;7.23;;;12.60;99.90;;;;;;6160572;23;20617;-76
2022/10/29 03:03:51;;;;;;;13.50;7.97;;;12.50;99.90;;;;;;6160532;23;20178;-77
2022/10/29 03:06:19;;;;;;;14.70;7.40;;;12.50;99.90;;;;;;6186376;23;20171;-77
2022/10/29 03:08:46;;;;;;;13.07;7.67;;;12.50;99.90;;;;;;6187301;23;20211;-77
2022/10/29 03:11:13;;;;;;;14.10;7.30;;;12.50;99.90;;;;;;6160526;23;20199;-76
2022/10/29 03:13:40;;;;;;;16.17;8.07;;;12.50;99.90;;;;;;6160409;23;20513;-77
2022/10/29 03:16:07;;;;;;;14.57;7.80;;;12.50;99.90;;;;;;6187019;23;20186;-77
2022/10/29 03:18:34;;;;;;;12.10;7.10;;;12.60;99.90;;;;;;6185661;23;20164;-75
2022/10/29 03:21:00;;;;;;;14.90;7.07;;;12.60;99.90;;;;;;6160558;23;20180;-77
2022/10/29 03:23:27;;;;;;;13.87;7.80;;;12.60;99.90;;;;;;6160769;23;20182;-76
2022/10/29 03:25:55;;;;;;;15.43;7.67;;;12.70;99.90;;;;;;6160369;23;20200;-77
2022/10/29 03:28:24;;;;;;;13.53;7.57;;;12.70;99.90;;;;;;6185179;23;20521;-76
2022/10/29 03:30:50;;;;;;;12.93;7.40;;;12.70;99.90;;;;;;6160287;23;20245;-76
2022/10/29 03:33:17;;;;;;;13.80;7.60;;;12.70;99.90;;;;;;6161109;23;20606;-77
2022/10/29 03:35:44;;;;;;;17.57;7.47;;;12.70;99.90;;;;;;6160323;23;20163;-77
2022/10/29 03:38:11;;;;;;;12.63;7.03;;;12.70;99.90;;;;;;6187072;23;20554;-77
2022/10/29 03:40:38;;;;;;;13.63;7.00;;;12.80;99.90;;;;;;6187062;23;20226;-76
2022/10/29 03:43:05;;;;;;;16.33;7.67;;;12.80;99.90;;;;;;6160477;23;20174;-76
2022/10/29 03:45:32;;;;;;;12.37;7.43;;;12.90;99.90;;;;;;6186822;23;20159;-77
2022/10/29 03:47:59;;;;;;;14.13;6.87;;;12.90;99.90;;;;;;6186716;23;20163;-76
2022/10/29 03:50:26;;;;;;;13.50;7.40;;;12.90;99.90;;;;;;6186846;23;20175;-77
2022/10/29 03:52:53;;;;;;;16.40;7.43;;;12.90;99.90;;;;;;6160758;23;20188;-76
2022/10/29 03:55:19;;;;;;;15.07;7.33;;;12.90;99.90;;;;;;6160208;23;20369;-76
2022/10/29 03:57:46;;;;;;;14.33;7.83;;;12.80;99.90;;;;;;6186601;23;20225;-75
2022/10/29 04:00:14;;;;;;;13.73;7.23;;;12.80;99.90;;;;;;6186139;23;20520;-76
2022/10/29 04:02:41;;;;;;;14.00;7.23;;;12.80;99.90;;;;;;6160606;23;20179;-76
2022/10/29 04:05:08;;;;;;;13.73;7.30;;;12.80;99.90;;;;;;6159769;23;20203;-77
2022/10/29 04:07:35;;;;;;;12.77;7.57;;;12.80;99.90;;;;;;6185209;23;20167;-77
2022/10/29 04:10:02;;;;;;;13.33;7.23;;;12.70;99.90;;;;;;6160448;23;20182;-77
2022/10/29 04:12:28;;;;;;;12.83;6.63;;;12.80;99.90;;;;;;6185213;23;20198;-77
2022/10/29 04:14:56;;;;;;;15.90;7.20;;;12.80;99.90;;;;;;6186510;23;20172;-77
2022/10/29 04:17:23;;;;;;;15.93;7.40;;;12.70;99.90;;;;;;6160436;23;20501;-77
2022/10/29 04:19:49;;;;;;;15.47;7.90;;;12.70;99.90;;;;;;6160425;23;20167;-76
2022/10/29 04:22:16;;;;;;;11.87;6.80;;;12.70;99.90;;;;;;6185765;23;20534;-77
2022/10/29 04:25:03;;;;;;;14.03;7.33;;;12.60;99.90;;;;;;6159632;23;20202;-77
2022/10/29 04:27:53;;;;;;;13.93;7.37;;;12.60;99.90;;;;;;6159545;23;20645;-77
2022/10/29 04:30:40;;;;;;;17.40;7.73;;;12.70;99.90;;;;;;6184152;23;20186;-77
2022/10/29 04:33:07;;;;;;;12.93;7.20;;;12.70;99.90;;;;;;6186499;23;20196;-79
2022/10/29 04:35:34;;;;;;;18.23;8.33;;;12.70;99.90;;;;;;6159456;23;20159;-76
2022/10/29 04:38:10;;;;;;;13.67;7.40;;;12.70;99.90;;;;;;6135475;23;20199;-77
2022/10/29 04:40:37;;;;;;;16.20;6.73;;;12.70;99.90;;;;;;6160188;23;20171;-79
2022/10/29 04:43:04;;;;;;;15.07;7.03;;;12.70;99.90;;;;;;6159798;23;20606;-77
2022/10/29 04:45:32;;;;;;;12.00;6.57;;;12.80;99.90;;;;;;6159331;23;20267;-78
2022/10/29 04:48:04;;;;;;;12.43;7.20;;;12.80;99.90;;;;;;6159499;23;20172;-77
2022/10/29 04:50:32;;;;;;;13.13;6.97;;;12.80;99.90;;;;;;6184563;23;20172;-76
2022/10/29 04:53:04;;;;;;;15.20;7.17;;;12.80;99.90;;;;;;6184309;23;20191;-80
2022/10/29 04:55:31;;;;;;;15.80;6.67;;;12.90;99.90;;;;;;6159528;23;20176;-77
2022/10/29 04:57:58;;;;;;;10.07;6.80;;;12.90;99.90;;;;;;6184176;23;20183;-76
2022/10/29 05:00:25;;;;;;;12.10;7.10;;;13.00;99.90;;;;;;6159385;23;20172;-77
2022/10/29 05:02:52;;;;;;;16.83;7.30;;;13.00;99.90;;;;;;6186028;23;20494;-76
2022/10/29 05:05:20;;;;;;;11.57;6.83;;;13.10;99.90;;;;;;6159467;23;20241;-79
2022/10/29 05:07:47;;;;;;;14.07;7.23;;;13.10;99.90;;;;;;6185721;23;20168;-76
2022/10/29 05:10:14;;;;;;;15.33;7.03;;;13.10;99.90;;;;;;6184496;23;20176;-76
2022/10/29 05:12:41;;;;;;;14.27;6.60;;;13.10;99.90;;;;;;6184120;23;20191;-76
2022/10/29 05:15:08;;;;;;;13.37;6.53;;;13.20;99.90;;;;;;6185579;23;20163;-76
2022/10/29 05:17:37;;;;;;;12.27;6.67;;;13.20;99.90;;;;;;6159751;23;20175;-76
2022/10/29 05:20:05;;;;;;;11.43;6.63;;;13.20;99.90;;;;;;6159627;23;20160;-76
2022/10/29 05:22:33;;;;;;;14.97;6.40;;;13.20;99.90;;;;;;6160012;23;20168;-76
2022/10/29 05:24:59;;;;;;;10.67;6.60;;;13.30;99.90;;;;;;6159336;23;20195;-75
2022/10/29 05:27:26;;;;;;;11.20;6.33;;;13.30;99.90;;;;;;6185402;23;20516;-77
2022/10/29 05:29:53;;;;;;;14.03;6.17;;;13.30;99.90;;;;;;6159605;23;20218;-76
2022/10/29 05:32:20;;;;;;;11.70;6.77;;;13.40;99.90;;;;;;6159243;23;20202;-76
2022/10/29 05:34:47;;;;;;;14.63;6.10;;;13.40;99.90;;;;;;6185174;23;20609;-76
2022/10/29 05:37:14;;;;;;;14.43;6.67;;;13.50;99.90;;;;;;6159072;23;20270;-76
2022/10/29 05:39:40;;;;;;;15.40;6.23;;;13.50;99.90;;;;;;6159318;23;20487;-77
2022/10/29 05:42:07;;;;;;;15.23;6.10;;;13.60;99.90;;;;;;6185530;23;20202;-77
2022/10/29 05:44:34;;;;;;;13.07;6.53;;;13.60;99.90;;;;;;6159134;23;20168;-77
2022/10/29 05:47:01;;;;;;;14.37;6.57;;;13.60;99.90;;;;;;6159668;23;20485;-76
2022/10/29 05:49:28;;;;;;;13.90;6.23;;;13.60;99.90;;;;;;6159418;23;20168;-76
2022/10/29 05:51:55;;;;;;;16.93;6.40;;;13.60;99.90;;;;;;6159223;23;20183;-76
2022/10/29 05:54:22;;;;;;;12.00;6.20;;;13.60;99.90;;;;;;6159503;23;20176;-76
2022/10/29 05:56:48;;;;;;;12.80;6.33;;;13.70;99.90;;;;;;6159201;23;20224;-77
2022/10/29 05:59:16;;;;;;;12.37;6.30;;;13.70;99.90;;;;;;6185392;23;20197;-77
2022/10/29 06:01:43;;;;;;;12.27;6.10;;;13.70;99.90;;;;;;6159525;23;20179;-76
2022/10/29 06:04:10;;;;;;;13.80;6.83;;;13.70;99.90;;;;;;6185276;23;20167;-76
2022/10/29 06:06:37;;;;;;;11.47;5.97;;;13.80;99.90;;;;;;6159103;23;20175;-75
2022/10/29 06:09:04;;;;;;;14.03;6.00;;;13.80;99.90;;;;;;6185284;23;20201;-76
2022/10/29 06:11:31;;;;;;;13.70;5.83;;;13.80;99.90;;;;;;6158727;23;20171;-77
2022/10/29 06:13:58;;;;;;;12.17;6.20;;;13.80;99.90;;;;;;6159231;23;20593;-77
2022/10/29 06:16:25;;;;;;;11.07;5.87;;;13.90;99.90;;;;;;6159107;23;20172;-77
2022/10/29 06:18:52;;;;;;;12.97;6.30;;;13.90;99.90;;;;;;6185846;23;20167;-77
2022/10/29 06:21:18;;;;;;;11.70;6.10;;;13.90;99.90;;;;;;6186094;23;20171;-77
2022/10/29 06:23:45;;;;;;;11.77;5.70;;;13.90;99.90;;;;;;6185757;23;20191;-77
2022/10/29 06:26:12;;;;;;;11.50;5.50;;;14.00;99.90;;;;;;6158802;23;20175;-77
2022/10/29 06:28:39;;;;;;;12.10;5.77;;;14.00;99.90;;;;;;6159235;23;20171;-77
2022/10/29 06:31:06;;;;;;;11.97;5.60;;;14.00;99.90;;;;;;6185200;23;20184;-77
2022/10/29 06:33:32;;;;;;;9.33;5.50;;;14.10;99.90;;;;;;6184468;23;20570;-77
2022/10/29 06:36:01;;;;;;;14.10;5.60;;;14.10;99.90;;;;;;6158739;23;20203;-76
2022/10/29 06:38:27;;;;;;;9.23;5.50;;;14.20;99.90;;;;;;6159168;23;20202;-76
2022/10/29 06:40:54;;;;;;;12.93;6.07;;;14.30;99.90;;;;;;6158929;23;20168;-76
2022/10/29 06:43:21;;;;;;;13.43;5.83;;;14.30;99.90;;;;;;6158905;23;20226;-75
2022/10/29 06:45:49;;;;;;;10.67;5.60;;;14.30;99.90;;;;;;6159222;23;20171;-77
2022/10/29 06:48:16;;;;;;;12.20;5.37;;;14.40;99.90;;;;;;6186725;23;20175;-76
2022/10/29 06:50:48;;;;;;;13.13;5.73;;;14.50;99.90;;;;;;6186804;23;20226;-76
2022/10/29 06:53:15;;;;;;;13.10;5.60;;;14.50;99.90;;;;;;6187015;23;20183;-76
2022/10/29 06:55:42;;;;;;;12.07;5.53;;;14.50;99.90;;;;;;6160923;23;20171;-77
2022/10/29 06:58:14;;;;;;;13.07;6.10;;;14.60;99.90;;;;;;6161150;23;20234;-76
2022/10/29 07:00:42;;;;;;;17.50;5.70;;;14.70;99.90;;;;;;6160435;23;20175;-77
2022/10/29 07:03:14;;;;;;;15.20;5.27;;;14.70;99.90;;;;;;6160347;23;20494;-76
2022/10/29 07:05:41;;;;;;;25.27;6.80;;;14.80;99.90;;;;;;6185179;23;20183;-77
2022/10/29 07:08:08;;;;;;;12.93;5.87;;;14.80;99.90;;;;;;6160972;23;20166;-76
2022/10/29 07:10:35;;;;;;;14.40;5.83;;;14.90;99.90;;;;;;6186953;23;20172;-75
2022/10/29 07:13:03;;;;;;;13.80;5.50;;;14.90;99.90;;;;;;6187722;23;20572;-76
2022/10/29 07:15:31;;;;;;;13.03;5.60;;;15.00;99.90;;;;;;6187022;23;20214;-76
2022/10/29 07:18:10;;;;;;;13.70;5.40;;;15.00;99.90;;;;;;6160959;23;20176;-76
2022/10/29 07:20:43;;;;;;;12.10;6.00;;;15.10;99.90;;;;;;6185129;23;20168;-76
2022/10/29 07:23:12;;;;;;;11.53;5.77;;;15.20;99.90;;;;;;6185644;23;20259;-78
2022/10/29 07:25:39;;;;;;;9.90;5.30;;;15.20;99.90;;;;;;6160502;23;20168;-76
2022/10/29 07:28:16;;;;;;;11.70;5.77;;;15.30;99.90;;;;;;6185354;23;20516;-77
2022/10/29 07:30:44;;;;;;;13.27;5.73;;;15.30;99.90;;;;;;6160513;23;20175;-76
2022/10/29 07:33:11;;;;;;;10.77;5.30;;;15.30;99.90;;;;;;6160564;23;20563;-76
2022/10/29 07:35:38;;;;;;;11.30;5.80;;;15.40;99.90;;;;;;6160374;23;20167;-76
2022/10/29 07:38:07;;;;;;;15.37;5.77;;;15.50;99.90;;;;;;6186787;23;20632;-75
2022/10/29 07:40:38;;;;;;;13.73;6.07;;;15.60;99.90;;;;;;6161124;23;20469;-75
2022/10/29 07:43:05;;;;;;;11.43;5.33;;;15.90;99.90;;;;;;6186518;23;20504;-74
2022/10/29 07:45:32;;;;;;;13.00;5.50;;;16.20;99.90;;;;;;6159909;23;20168;-77
2022/10/29 07:48:06;;;;;;;14.60;5.67;;;16.50;99.90;;;;;;6160202;23;20258;-76
2022/10/29 07:50:33;;;;;;;12.57;5.40;;;16.70;99.90;;;;;;6184979;23;20508;-76
2022/10/29 07:53:01;;;;;;;15.63;5.93;;;17.00;99.90;;;;;;6185224;23;20203;-76
2022/10/29 07:55:29;;;;;;;13.17;6.23;;;17.30;99.90;;;;;;6185396;23;20203;-77
2022/10/29 07:58:00;;;;;;;12.73;5.67;;;17.20;99.90;;;;;;6159244;23;20171;-76
2022/10/29 08:00:34;;;;;;;12.13;5.53;;;17.40;99.90;;;;;;6186846;23;20160;-76
2022/10/29 08:03:05;;;;;;;11.40;5.97;;;17.50;99.90;;;;;;6160120;23;20172;-75
2022/10/29 08:05:32;;;;;;;11.23;5.63;;;17.50;99.90;;;;;;6160510;23;20502;-75
2022/10/29 08:07:59;;;;;;;10.60;5.90;;;17.50;99.90;;;;;;6160644;23;20657;-77
2022/10/29 08:10:27;;;;;;;20.70;6.77;;;17.70;99.90;;;;;;6185142;23;20180;-77
2022/10/29 08:12:56;;;;;;;12.77;5.77;;;17.70;99.90;;;;;;6160262;23;20688;-75
2022/10/29 08:15:25;;;;;;;13.33;5.60;;;17.60;99.90;;;;;;6160046;23;20172;-75
2022/10/29 08:17:53;;;;;;;12.13;6.10;;;17.60;99.90;;;;;;6159998;23;20621;-75
2022/10/29 08:20:21;;;;;;;12.60;5.80;;;17.70;99.90;;;;;;6186943;23;20159;-74
2022/10/29 08:22:49;;;;;;;12.47;6.20;;;17.70;99.90;;;;;;6185050;23;20222;-76
2022/10/29 08:25:16;;;;;;;16.30;6.47;;;17.70;99.90;;;;;;6160455;23;20250;-77
2022/10/29 08:27:43;;;;;;;15.33;6.13;;;17.70;99.90;;;;;;6160108;23;20195;-75
2022/10/29 08:30:12;;;;;;;14.17;6.13;;;17.70;99.90;;;;;;6160608;23;20616;-77
2022/10/29 08:32:45;;;;;;;14.20;6.03;;;17.80;99.90;;;;;;6160066;23;20191;-75
2022/10/29 08:35:14;;;;;;;13.23;5.60;;;17.90;99.90;;;;;;6184947;23;20603;-75
2022/10/29 08:37:44;;;;;;;14.70;6.50;;;18.00;99.90;;;;;;6186453;23;20531;-75
2022/10/29 08:40:28;;;;;;;17.30;6.80;;;18.00;99.90;;;;;;6160865;23;20246;-73
2022/10/29 08:43:33;;;;;;;15.00;6.17;;;17.90;99.90;;;;;;6187296;23;20172;-75
2022/10/29 08:46:00;;;;;;;13.27;6.10;;;18.00;99.90;;;;;;6186324;23;20174;-75
2022/10/29 08:48:40;;;;;;;12.67;6.07;;;18.10;99.90;;;;;;6159913;23;20263;-75
2022/10/29 08:51:13;;;;;;;13.27;5.90;;;18.20;99.90;;;;;;6159831;23;20499;-75
2022/10/29 08:53:53;;;;;;;10.70;5.90;;;18.10;99.90;;;;;;6159245;23;20187;-73
2022/10/29 08:56:51;;;;;;;12.67;6.00;;;18.10;99.90;;;;;;6158965;23;20255;-76
2022/10/29 08:59:24;;;;;;;11.67;5.80;;;18.40;99.90;;;;;;6185719;23;20195;-76
2022/10/29 09:01:54;;;;;;;12.07;5.90;;;18.70;99.90;;;;;;6159101;23;20179;-76
2022/10/29 09:04:23;;;;;;;12.67;6.00;;;19.00;99.90;;;;;;6159008;23;20199;-75
2022/10/29 09:07:07;;;;;;;11.37;6.30;;;19.10;99.90;;;;;;6159002;23;20606;-75
2022/10/29 09:09:53;;;;;;;14.33;6.27;;;19.30;99.90;;;;;;6159499;23;20243;-76
2022/10/29 09:12:38;;;;;;;14.63;5.80;;;19.10;99.90;;;;;;6159308;23;20160;-77
2022/10/29 09:15:43;;;;;;;15.67;6.13;;;19.00;99.90;;;;;;6185334;23;20169;-76
2022/10/29 09:18:43;;;;;;;12.63;6.30;;;18.80;99.90;;;;;;6184332;23;20167;-75
2022/10/29 09:21:37;;;;;;;18.27;6.67;;;18.50;99.90;;;;;;6159398;23;20609;-75
2022/10/29 09:24:22;;;;;;;13.87;6.97;;;18.50;99.90;;;;;;6157770;23;20179;-76
2022/10/29 09:26:59;;;;;;;17.33;7.23;;;18.50;99.90;;;;;;6185418;23;20613;-77
2022/10/29 09:30:24;;;;;;;14.57;6.83;;;18.20;99.90;;;;;;6184101;23;20226;-77
2022/10/29 09:33:03;;;;;;;15.70;7.20;;;18.20;99.90;;;;;;6153000;23;20225;-76
2022/10/29 09:35:39;;;;;;;13.97;7.00;;;18.00;99.90;;;;;;6127273;23;20176;-75
2022/10/29 09:38:17;;;;;;;16.97;6.87;;;18.10;99.90;;;;;;6151687;23;20524;-76
2022/10/29 09:40:44;;;;;;;17.77;6.97;;;17.80;99.90;;;;;;6126516;23;20255;-76
2022/10/29 09:43:32;;;;;;;17.27;7.53;;;17.70;99.90;;;;;;6127048;23;20172;-76
2022/10/29 09:46:12;;;;;;;15.97;7.57;;;17.60;99.90;;;;;;6127068;23;20175;-78
2022/10/29 09:49:16;;;;;;;21.03;7.93;;;17.60;99.90;;;;;;6126841;23;20191;-77
2022/10/29 09:52:03;;;;;;;14.50;6.93;;;17.50;99.90;;;;;;6127372;23;20172;-73
2022/10/29 09:54:31;;;;;;;15.47;7.40;;;17.40;99.90;;;;;;6151700;23;20200;-74
2022/10/29 09:57:01;;;;;;;20.23;7.73;;;17.50;99.90;;;;;;6126381;23;20175;-75
2022/10/29 09:59:30;;;;;;;16.03;8.57;;;17.60;99.90;;;;;;6127389;23;20180;-75
2022/10/29 10:01:58;;;;;;;15.87;8.10;;;17.60;99.90;;;;;;6128372;23;20195;-74
2022/10/29 10:04:39;;;;;;;16.43;7.40;;;17.60;99.90;;;;;;6152658;23;20176;-74
2022/10/29 10:07:15;;;;;;;20.37;8.47;;;17.90;99.90;;;;;;6145775;23;20171;-74
2022/10/29 10:09:54;;;;;;;19.97;8.67;;;17.80;99.90;;;;;;6156248;23;20262;-75
2022/10/29 10:12:24;;;;;;;19.00;8.53;;;17.80;99.90;;;;;;6183259;23;20171;-75
2022/10/29 10:15:15;;;;;;;21.03;9.00;;;17.60;99.90;;;;;;6158527;23;20179;-76
2022/10/29 10:18:04;;;;;;;18.47;8.80;;;17.50;99.90;;;;;;6158246;23;20172;-74
2022/10/29 10:20:44;;;;;;;17.97;8.37;;;17.50;99.90;;;;;;6183027;23;20183;-74
2022/10/29 10:23:26;;;;;;;18.27;9.23;;;17.50;99.90;;;;;;6185074;23;20183;-75
2022/10/29 10:25:57;;;;;;;17.60;8.70;;;17.50;99.90;;;;;;6134994;23;20623;-74
2022/10/29 10:28:34;;;;;;;20.77;9.43;;;17.50;99.90;;;;;;6159375;23;20548;-77
2022/10/29 10:31:13;;;;;;;27.13;11.47;;;17.50;99.90;;;;;;6159129;23;20164;-74
2022/10/29 10:33:52;;;;;;;25.53;11.10;;;17.40;99.90;;;;;;6159484;23;20202;-73
2022/10/29 10:36:22;;;;;;;24.27;12.10;;;17.30;99.90;;;;;;6159449;23;20199;-77
2022/10/29 10:38:52;;;;;;;25.70;12.37;;;17.30;99.90;;;;;;6160653;23;20179;-79
2022/10/29 10:41:33;;;;;;;24.80;12.00;;;17.20;99.90;;;;;;6184227;23;20602;-77
2022/10/29 10:44:04;;;;;;;25.20;12.43;;;17.20;99.90;;;;;;6160410;23;20174;-77
2022/10/29 10:46:37;;;;;;;26.80;13.17;;;17.10;99.90;;;;;;6185377;23;20176;-76
2022/10/29 10:49:19;;;;;;;31.63;13.80;;;17.10;99.90;;;;;;6185440;23;20506;-75
2022/10/29 10:51:54;;;;;;;25.23;12.70;;;17.10;99.90;;;;;;6186887;23;20167;-75
2022/10/29 10:54:32;;;;;;;30.77;14.30;;;17.20;99.90;;;;;;6185077;23;20203;-74
2022/10/29 10:57:04;;;;;;;28.90;13.87;;;17.00;99.90;;;;;;6160854;23;20251;-74
2022/10/29 10:59:46;;;;;;;32.17;13.90;;;16.80;99.90;;;;;;6185629;23;20465;-75
2022/10/29 11:02:25;;;;;;;32.93;14.60;;;16.90;99.90;;;;;;6186879;23;20559;-75
2022/10/29 11:05:01;;;;;;;32.43;14.77;;;16.80;99.90;;;;;;6185135;23;20178;-73
2022/10/29 11:07:36;;;;;;;31.63;14.93;;;16.70;99.90;;;;;;6185414;23;20645;-75
2022/10/29 11:10:10;;;;;;;37.37;15.47;;;16.80;99.90;;;;;;6185364;23;20171;-75
2022/10/29 11:12:51;;;;;;;33.33;14.77;;;16.90;99.90;;;;;;6160634;23;20170;-75
2022/10/29 11:15:41;;;;;;;29.77;13.83;;;17.00;99.90;;;;;;6185257;23;20168;-76
2022/10/29 11:18:37;;;;;;;27.47;13.43;;;17.10;99.90;;;;;;6160583;23;20205;-75
2022/10/29 11:21:13;;;;;;;24.60;13.20;;;17.20;99.90;;;;;;6160696;23;20164;-75
2022/10/29 11:24:18;;;;;;;27.03;12.97;;;17.30;99.90;;;;;;6186092;23;20262;-75
2022/10/29 11:27:02;;;;;;;26.30;12.70;;;17.50;99.90;;;;;;6186811;23;20238;-75
2022/10/29 11:29:49;;;;;;;29.13;12.57;;;17.60;99.90;;;;;;6160211;23;20191;-76
2022/10/29 11:32:57;;;;;;;24.57;12.33;;;17.50;99.90;;;;;;6186461;23;20249;-75
2022/10/29 11:35:36;;;;;;;24.93;12.40;;;17.30;99.90;;;;;;6070901;23;20220;-74
2022/10/29 11:38:46;;;;;;;23.07;12.10;;;17.30;99.90;;;;;;6071327;23;20173;-76
2022/10/29 11:41:24;;;;;;;24.93;12.27;;;17.30;99.90;;;;;;6084549;23;20578;-75
2022/10/29 11:43:51;;;;;;;22.00;11.67;;;17.00;99.90;;;;;;6095357;23;20181;-76
2022/10/29 11:46:52;;;;;;;27.10;11.70;;;17.00;99.90;;;;;;6071363;23;20612;-76
2022/10/29 11:49:44;;;;;;;27.33;11.77;;;17.00;99.90;;;;;;6095381;23;20241;-76
2022/10/29 11:52:25;;;;;;;21.97;10.63;;;17.10;99.90;;;;;;6071759;23;20295;-77
2022/10/29 11:55:19;;;;;;;19.43;10.90;;;17.20;99.90;;;;;;6070741;23;20559;-77
2022/10/29 11:58:02;;;;;;;23.90;11.63;;;17.30;99.90;;;;;;6094866;23;20170;-76
2022/10/29 12:00:56;;;;;;;23.00;11.60;;;17.30;99.90;;;;;;6094794;23;20593;-78
2022/10/29 12:03:23;;;;;;;21.47;10.97;;;17.40;99.90;;;;;;6094804;23;20584;-78
2022/10/29 12:06:01;;;;;;;31.27;11.73;;;17.40;99.90;;;;;;6094158;23;20181;-78
2022/10/29 12:08:47;;;;;;;22.17;11.30;;;17.40;99.90;;;;;;6095078;23;20225;-77
2022/10/29 12:11:32;;;;;;;22.63;10.80;;;17.50;99.90;;;;;;6124573;23;20259;-77
2022/10/29 12:14:26;;;;;;;24.63;11.10;;;17.60;99.90;;;;;;6184586;23;20214;-77
2022/10/29 12:17:12;;;;;;;23.70;11.00;;;17.70;99.90;;;;;;6159733;23;20164;-77
2022/10/29 12:20:05;;;;;;;19.10;10.73;;;17.80;99.90;;;;;;6186167;23;20172;-77
2022/10/29 12:23:02;;;;;;;21.10;10.10;;;18.20;99.90;;;;;;6184704;23;20629;-77
2022/10/29 12:25:41;;;;;;;21.73;10.20;;;18.40;99.90;;;;;;6159705;23;20176;-79
2022/10/29 12:28:22;;;;;;;18.47;9.63;;;18.50;99.90;;;;;;6160314;23;20196;-78
2022/10/29 12:30:57;;;;;;;16.33;10.70;;;18.50;99.90;;;;;;6159836;23;20202;-79
2022/10/29 12:33:50;;;;;;;15.13;8.87;;;18.50;99.90;;;;;;6159935;23;20547;-78
2022/10/29 12:36:42;;;;;;;16.87;8.97;;;18.50;99.90;;;;;;6185802;23;20637;-78
2022/10/29 12:39:40;;;;;;;17.70;8.43;;;19.00;99.90;;;;;;6186299;23;20200;-79
2022/10/29 12:42:15;;;;;;;18.53;8.37;;;19.10;99.90;;;;;;6160081;23;20172;-77
2022/10/29 12:44:54;;;;;;;19.30;8.37;;;19.20;99.90;;;;;;6183870;23;20238;-78
2022/10/29 12:47:40;;;;;;;14.17;8.07;;;19.20;99.90;;;;;;6159997;23;20175;-77
2022/10/29 12:50:16;;;;;;;16.70;7.67;;;19.10;99.90;;;;;;6159415;23;20179;-77
2022/10/29 12:53:12;;;;;;;19.33;8.10;;;19.10;99.90;;;;;;6159751;23;20171;-77
2022/10/29 12:55:41;;;;;;;17.67;8.23;;;19.10;99.90;;;;;;6159205;23;20175;-77
2022/10/29 12:58:42;;;;;;;15.87;8.27;;;19.20;99.90;;;;;;6159241;23;20175;-77
2022/10/29 13:01:29;;;;;;;14.13;7.70;;;19.10;99.90;;;;;;6185983;23;20174;-77
2022/10/29 13:04:27;;;;;;;13.07;7.77;;;19.40;99.90;;;;;;6185933;23;20547;-77
2022/10/29 13:07:14;;;;;;;16.90;8.40;;;19.60;99.90;;;;;;6159052;23;20178;-77
2022/10/29 13:09:41;;;;;;;20.73;8.33;;;19.50;99.90;;;;;;6186227;23;20291;-77